createdAt,value
2023-01-13T00:01:07.746Z,100495.22
2023-01-13T00:03:34.632Z,100507.13
2023-01-13T00:06:01.050Z,100494.34
2023-01-13T00:08:27.408Z,100492.84
2023-01-13T00:10:53.761Z,100486.19
2023-01-13T00:13:26.459Z,100487.25
2023-01-13T00:16:00.917Z,100474.50
2023-01-13T00:18:28.293Z,100478.81
2023-01-13T00:21:08.614Z,100483.91
2023-01-13T00:23:38.713Z,100474.75
2023-01-13T00:26:11.946Z,100476.56
2023-01-13T00:28:38.677Z,100482.66
2023-01-13T00:31:10.456Z,100495.50
2023-01-13T00:33:37.415Z,100499.84
2023-01-13T00:36:06.090Z,100507.50
2023-01-13T00:38:34.424Z,100515.25
2023-01-13T00:41:05.291Z,100504.16
2023-01-13T00:43:32.967Z,100493.22
2023-01-13T00:45:59.892Z,100494.06
2023-01-13T00:48:27.730Z,100495.88
2023-01-13T00:51:10.794Z,100476.34
2023-01-13T00:53:40.040Z,100482.31
2023-01-13T00:56:21.876Z,100470.50
2023-01-13T00:58:56.402Z,100472.97
2023-01-13T01:01:26.082Z,100460.19
2023-01-13T01:03:54.197Z,100462.69
2023-01-13T01:06:26.681Z,100449.97
2023-01-13T01:08:54.916Z,100454.19
2023-01-13T01:11:26.710Z,100451.53
2023-01-13T01:13:55.530Z,100445.59
2023-01-13T01:16:24.337Z,100435.28
2023-01-13T01:18:52.315Z,100442.94
2023-01-13T01:21:19.483Z,100446.25
2023-01-13T01:23:45.966Z,100449.63
2023-01-13T01:26:18.418Z,100442.03
2023-01-13T01:28:45.233Z,100441.94
2023-01-13T01:31:20.780Z,100433.47
2023-01-13T01:33:47.682Z,100442.84
2023-01-13T01:36:15.647Z,100454.81
2023-01-13T01:38:42.302Z,100459.78
2023-01-13T01:41:14.131Z,100467.47
2023-01-13T01:44:02.383Z,100470.88
2023-01-13T01:46:33.302Z,100471.66
2023-01-13T01:49:05.587Z,100479.22
2023-01-13T01:51:37.161Z,100480.06
2023-01-13T01:54:07.734Z,100480.91
2023-01-13T01:56:35.253Z,100478.34
2023-01-13T01:59:01.908Z,100470.75
2023-01-13T02:01:28.735Z,100475.88
2023-01-13T02:04:11.197Z,100466.59
2023-01-13T02:06:37.973Z,100467.50
2023-01-13T02:09:04.798Z,100451.47
2023-01-13T02:11:54.609Z,100443.16
2023-01-13T02:14:26.694Z,100461.06
2023-01-13T02:17:06.811Z,100461.75
2023-01-13T02:20:04.416Z,100454.19
2023-01-13T02:22:49.438Z,100455.09
2023-01-13T02:25:45.261Z,100456.91
2023-01-13T02:28:34.800Z,100455.97
2023-01-13T02:31:28.729Z,100443.22
2023-01-13T02:34:24.032Z,100449.94
2023-01-13T02:36:58.250Z,100447.47
2023-01-13T02:39:33.261Z,100436.38
2023-01-13T02:42:27.800Z,100436.41
2023-01-13T02:45:16.451Z,100424.50
2023-01-13T02:47:47.541Z,100410.06
2023-01-13T02:50:17.522Z,100417.59
2023-01-13T02:52:50.598Z,100422.78
2023-01-13T02:55:21.954Z,100424.41
2023-01-13T02:57:49.897Z,100425.22
2023-01-13T03:00:18.266Z,100428.69
2023-01-13T03:02:44.715Z,100411.75
2023-01-13T03:05:15.742Z,100420.22
2023-01-13T03:08:01.049Z,100420.94
2023-01-13T03:11:02.451Z,100420.91
2023-01-13T03:13:52.553Z,100419.28
2023-01-13T03:16:39.414Z,100407.41
2023-01-13T03:19:14.348Z,100410.97
2023-01-13T03:22:05.620Z,100416.94
2023-01-13T03:24:40.951Z,100416.19
2023-01-13T03:27:10.151Z,100410.16
2023-01-13T03:29:58.717Z,100408.44
2023-01-13T03:32:33.699Z,100408.50
2023-01-13T03:35:07.643Z,100405.97
2023-01-13T03:37:38.935Z,100404.25
2023-01-13T03:40:23.379Z,100413.63
2023-01-13T03:43:13.987Z,100427.13
2023-01-13T03:45:42.612Z,100434.59
2023-01-13T03:48:15.354Z,100433.72
2023-01-13T03:50:48.217Z,100426.13
2023-01-13T03:53:26.823Z,100414.13
2023-01-13T03:56:20.237Z,100413.41
2023-01-13T03:58:53.716Z,100415.03
2023-01-13T04:01:29.277Z,100410.88
2023-01-13T04:04:16.185Z,100409.03
2023-01-13T04:06:57.818Z,100404.75
2023-01-13T04:09:37.518Z,100404.91
2023-01-13T04:12:11.704Z,100410.16
2023-01-13T04:14:38.945Z,100394.88
2023-01-13T04:17:05.592Z,100406.03
2023-01-13T04:19:33.088Z,100406.09
2023-01-13T04:21:59.790Z,100412.94
2023-01-13T04:24:26.301Z,100418.88
2023-01-13T04:26:52.788Z,100413.75
2023-01-13T04:29:19.301Z,100423.16
2023-01-13T04:31:45.729Z,100418.84
2023-01-13T04:34:12.408Z,100415.38
2023-01-13T04:36:38.871Z,100424.78
2023-01-13T04:39:05.594Z,100429.09
2023-01-13T04:41:51.953Z,100429.03
2023-01-13T04:44:18.397Z,100424.06
2023-01-13T04:46:44.836Z,100419.84
2023-01-13T04:49:11.258Z,100422.53
2023-01-13T04:51:37.665Z,100418.47
2023-01-13T04:54:04.262Z,100422.78
2023-01-13T04:56:30.849Z,100412.50
2023-01-13T04:58:57.427Z,100413.41
2023-01-13T05:01:23.973Z,100414.28
2023-01-13T05:03:50.507Z,100417.56
2023-01-13T05:06:16.940Z,100422.72
2023-01-13T05:08:43.514Z,100415.72
2023-01-13T05:11:28.702Z,100411.38
2023-01-13T05:14:13.407Z,100406.31
2023-01-13T05:16:58.305Z,100409.75
2023-01-13T05:19:24.784Z,100407.94
2023-01-13T05:22:09.913Z,100388.31
2023-01-13T05:24:54.690Z,100392.63
2023-01-13T05:27:21.152Z,100389.31
2023-01-13T05:29:47.775Z,100395.19
2023-01-13T05:32:14.205Z,100386.75
2023-01-13T05:34:40.688Z,100391.03
2023-01-13T05:37:08.222Z,100396.94
2023-01-13T05:39:53.727Z,100397.06
2023-01-13T05:42:41.663Z,100392.06
2023-01-13T05:45:08.789Z,100392.75
2023-01-13T05:47:35.372Z,100414.13
2023-01-13T05:50:02.546Z,100421.72
2023-01-13T05:52:29.000Z,100414.78
2023-01-13T05:54:55.401Z,100416.50
2023-01-13T05:57:22.279Z,100413.13
2023-01-13T05:59:49.058Z,100415.84
2023-01-13T06:02:15.475Z,100412.44
2023-01-13T06:04:41.962Z,100419.34
2023-01-13T06:07:08.400Z,100406.53
2023-01-13T06:09:35.036Z,100418.41
2023-01-13T06:12:01.470Z,100409.94
2023-01-13T06:14:40.084Z,100409.16
2023-01-13T06:17:08.620Z,100434.72
2023-01-13T06:19:35.337Z,100408.31
2023-01-13T06:22:15.510Z,100433.09
2023-01-13T06:24:42.058Z,100410.13
2023-01-13T06:27:09.414Z,100427.06
2023-01-13T06:29:35.913Z,100402.34
2023-01-13T06:32:07.164Z,100415.84
2023-01-13T06:34:37.751Z,100409.84
2023-01-13T06:37:05.194Z,100408.09
2023-01-13T06:39:32.577Z,100425.97
2023-01-13T06:42:18.125Z,100423.34
2023-01-13T06:44:45.606Z,100430.06
2023-01-13T06:47:12.149Z,100431.75
2023-01-13T06:49:38.678Z,100433.47
2023-01-13T06:52:05.560Z,100429.28
2023-01-13T06:54:31.970Z,100434.28
2023-01-13T06:56:59.993Z,100438.47
2023-01-13T06:59:26.726Z,100435.03
2023-01-13T07:01:53.358Z,100441.88
2023-01-13T07:04:20.018Z,100435.84
2023-01-13T07:06:46.479Z,100425.59
2023-01-13T07:09:13.094Z,100452.78
2023-01-13T07:11:39.603Z,100441.72
2023-01-13T07:14:24.648Z,100449.41
2023-01-13T07:16:52.668Z,100452.75
2023-01-13T07:19:23.713Z,100439.91
2023-01-13T07:21:51.642Z,100450.97
2023-01-13T07:24:18.806Z,100450.91
2023-01-13T07:26:45.352Z,100459.28
2023-01-13T07:29:12.301Z,100458.44
2023-01-13T07:31:39.229Z,100454.19
2023-01-13T07:34:07.254Z,100467.69
2023-01-13T07:36:34.277Z,100456.41
2023-01-13T07:39:00.967Z,100474.16
2023-01-13T07:41:46.103Z,100463.91
2023-01-13T07:44:12.668Z,100453.00
2023-01-13T07:46:39.674Z,100456.41
2023-01-13T07:49:06.920Z,100460.69
2023-01-13T07:51:37.112Z,100470.91
2023-01-13T07:54:06.973Z,100463.09
2023-01-13T07:56:33.539Z,100478.25
2023-01-13T07:59:00.834Z,100476.47
2023-01-13T08:01:28.250Z,100474.75
2023-01-13T08:03:59.054Z,100486.69
2023-01-13T08:06:26.471Z,100473.06
2023-01-13T08:08:53.407Z,100467.22
2023-01-13T08:11:22.639Z,100476.53
2023-01-13T08:13:50.003Z,100472.34
2023-01-13T08:16:16.869Z,100478.22
2023-01-13T08:18:43.764Z,100474.75
2023-01-13T08:21:12.985Z,100470.41
2023-01-13T08:23:40.487Z,100468.63
2023-01-13T08:26:10.365Z,100476.22
2023-01-13T08:28:37.702Z,100501.63
2023-01-13T08:31:06.481Z,100499.03
2023-01-13T08:33:33.668Z,100504.09
2023-01-13T08:36:07.416Z,100496.34
2023-01-13T08:38:35.177Z,100504.81
2023-01-13T08:41:08.009Z,100503.13
2023-01-13T08:43:34.524Z,100508.28
2023-01-13T08:46:04.901Z,100510.09
2023-01-13T08:48:31.844Z,100522.09
2023-01-13T08:51:05.699Z,100527.28
2023-01-13T08:53:32.206Z,100528.28
2023-01-13T08:55:58.722Z,100544.44
2023-01-13T08:58:25.303Z,100538.50
2023-01-13T09:00:51.821Z,100553.84
2023-01-13T09:03:18.233Z,100550.59
2023-01-13T09:05:44.715Z,100545.53
2023-01-13T09:08:11.156Z,100551.53
2023-01-13T09:10:37.744Z,100559.22
2023-01-13T09:13:13.228Z,100560.13
2023-01-13T09:15:42.106Z,100565.19
2023-01-13T09:18:08.716Z,100560.13
2023-01-13T09:20:35.799Z,100576.28
2023-01-13T09:23:03.029Z,100585.56
2023-01-13T09:25:29.522Z,100585.59
2023-01-13T09:27:56.753Z,100583.91
2023-01-13T09:30:23.921Z,100586.59
2023-01-13T09:33:10.504Z,100582.44
2023-01-13T09:35:36.987Z,100580.78
2023-01-13T09:38:06.992Z,100584.16
2023-01-13T09:40:33.847Z,100579.09
2023-01-13T09:43:33.168Z,100584.19
2023-01-13T09:46:05.773Z,100588.38
2023-01-13T09:48:51.720Z,100596.81
2023-01-13T09:51:28.028Z,100592.47
2023-01-13T09:54:01.856Z,100582.13
2023-01-13T09:56:28.336Z,100600.78
2023-01-13T09:58:54.985Z,100585.41
2023-01-13T10:01:35.349Z,100596.38
2023-01-13T10:04:11.295Z,100595.53
2023-01-13T10:06:42.073Z,100593.81
2023-01-13T10:09:18.472Z,100603.91
2023-01-13T10:12:07.013Z,100591.91
2023-01-13T10:14:41.426Z,100606.44
2023-01-13T10:17:30.624Z,100600.50
2023-01-13T10:20:17.099Z,100611.56
2023-01-13T10:22:46.241Z,100620.09
2023-01-13T10:25:42.283Z,100630.25
2023-01-13T10:28:13.960Z,100631.91
2023-01-13T10:30:43.548Z,100637.75
2023-01-13T10:33:14.374Z,100631.72
2023-01-13T10:35:51.774Z,100642.66
2023-01-13T10:38:25.779Z,100660.38
2023-01-13T10:40:55.217Z,100641.59
2023-01-13T10:43:22.073Z,100656.84
2023-01-13T10:46:00.671Z,100645.03
2023-01-13T10:48:41.935Z,100656.06
2023-01-13T10:51:20.626Z,100651.00
2023-01-13T10:53:52.420Z,100656.09
2023-01-13T10:56:21.231Z,100660.31
2023-01-13T10:58:47.808Z,100665.31
2023-01-13T11:01:27.410Z,100655.78
2023-01-13T11:03:55.347Z,100659.19
2023-01-13T11:06:25.495Z,100665.84
2023-01-13T11:08:55.369Z,100665.78
2023-01-13T11:11:33.651Z,100681.00
2023-01-13T11:14:22.604Z,100675.91
2023-01-13T11:16:53.999Z,100675.06
2023-01-13T11:19:24.297Z,100683.59
2023-01-13T11:22:09.475Z,100669.94
2023-01-13T11:24:42.772Z,100684.38
2023-01-13T11:27:12.303Z,100680.91
2023-01-13T11:29:49.815Z,100680.84
2023-01-13T11:32:21.265Z,100695.16
2023-01-13T11:35:18.656Z,100685.63
2023-01-13T11:37:52.509Z,100695.78
2023-01-13T11:40:40.669Z,100688.84
2023-01-13T11:43:32.065Z,100690.44
2023-01-13T11:46:00.217Z,100695.44
2023-01-13T11:48:30.830Z,100687.66
2023-01-13T11:51:06.659Z,100692.78
2023-01-13T11:53:39.070Z,100702.94
2023-01-13T11:56:17.651Z,100709.66
2023-01-13T11:59:21.414Z,100714.69
2023-01-13T12:02:10.307Z,100713.75
2023-01-13T12:05:13.447Z,100718.84
2023-01-13T12:07:58.358Z,100714.66
2023-01-13T12:10:49.582Z,100710.41
2023-01-13T12:13:29.126Z,100725.63
2023-01-13T12:16:04.666Z,100724.81
2023-01-13T12:18:57.523Z,100732.47
2023-01-13T12:21:32.673Z,100746.06
2023-01-13T12:24:14.093Z,100741.81
2023-01-13T12:26:54.555Z,100740.97
2023-01-13T12:29:34.464Z,100751.13
2023-01-13T12:32:04.548Z,100745.97
2023-01-13T12:34:30.943Z,100743.28
2023-01-13T12:37:20.597Z,100750.91
2023-01-13T12:39:58.636Z,100760.25
2023-01-13T12:42:53.390Z,100762.72
2023-01-13T12:45:24.953Z,100764.44
2023-01-13T12:47:55.559Z,100776.25
2023-01-13T12:50:21.994Z,100766.88
2023-01-13T12:52:51.249Z,100760.84
2023-01-13T12:55:20.914Z,100772.69
2023-01-13T12:58:15.542Z,100772.63
2023-01-13T13:00:42.710Z,100773.38
2023-01-13T13:03:16.222Z,100777.59
2023-01-13T13:06:11.870Z,100793.75
2023-01-13T13:09:18.423Z,100775.88
2023-01-13T13:11:58.680Z,100804.03
2023-01-13T13:14:37.587Z,100807.44
2023-01-13T13:17:25.462Z,100791.19
2023-01-13T13:19:52.327Z,100803.97
2023-01-13T13:22:21.145Z,100809.91
2023-01-13T13:24:56.396Z,100811.50
2023-01-13T13:27:26.073Z,100815.75
2023-01-13T13:30:02.075Z,100827.59
2023-01-13T13:32:52.763Z,100830.13
2023-01-13T13:35:51.764Z,100830.94
2023-01-13T13:39:13.818Z,100847.91
2023-01-13T13:42:04.033Z,100827.41
2023-01-13T13:44:51.728Z,100841.06
2023-01-13T13:47:18.285Z,100847.91
2023-01-13T13:49:50.826Z,100851.28
2023-01-13T13:52:26.491Z,100853.06
2023-01-13T13:54:57.062Z,100865.94
2023-01-13T13:57:33.619Z,100869.34
2023-01-13T14:00:03.924Z,100871.94
2023-01-13T14:02:32.486Z,100867.69
2023-01-13T14:05:08.794Z,100872.75
2023-01-13T14:07:46.257Z,100882.13
2023-01-13T14:10:27.092Z,100884.72
2023-01-13T14:12:53.594Z,100888.16
2023-01-13T14:15:32.789Z,100898.38
2023-01-13T14:18:05.649Z,100911.22
2023-01-13T14:20:34.458Z,100917.19
2023-01-13T14:23:01.648Z,100909.56
2023-01-13T14:25:39.527Z,100916.44
2023-01-13T14:28:24.401Z,100930.13
2023-01-13T14:30:51.943Z,100935.25
2023-01-13T14:33:23.636Z,100929.25
2023-01-13T14:36:08.085Z,100956.56
2023-01-13T14:38:34.674Z,100959.06
2023-01-13T14:41:32.716Z,100942.00
2023-01-13T14:44:01.576Z,100946.31
2023-01-13T14:46:45.547Z,100948.88
2023-01-13T14:49:39.465Z,100933.53
2023-01-13T14:52:20.193Z,100967.53
2023-01-13T14:54:53.777Z,100968.41
2023-01-13T14:57:28.639Z,100978.66
2023-01-13T14:59:56.180Z,100971.06
2023-01-13T15:02:28.631Z,100982.16
2023-01-13T15:04:58.768Z,100989.00
2023-01-13T15:07:28.190Z,101001.88
2023-01-13T15:10:00.803Z,101015.44
2023-01-13T15:12:39.259Z,101003.53
2023-01-13T15:15:21.077Z,101015.50
2023-01-13T15:17:47.554Z,101012.13
2023-01-13T15:20:15.720Z,101030.03
2023-01-13T15:22:42.202Z,101051.41
2023-01-13T15:25:12.141Z,101038.59
2023-01-13T15:27:38.891Z,101047.13
2023-01-13T15:30:22.384Z,101055.69
2023-01-13T15:32:48.838Z,101057.44
2023-01-13T15:35:16.831Z,101054.00
2023-01-13T15:37:44.826Z,101059.19
2023-01-13T15:40:23.705Z,101066.03
2023-01-13T15:43:08.757Z,101068.72
2023-01-13T15:45:55.556Z,101084.09
2023-01-13T15:48:24.373Z,101084.88
2023-01-13T15:50:51.198Z,101089.16
2023-01-13T15:53:19.128Z,101100.28
2023-01-13T15:55:50.791Z,101098.63
2023-01-13T15:58:20.477Z,101102.13
2023-01-13T16:00:47.091Z,101101.34
2023-01-13T16:03:14.684Z,101104.78
2023-01-13T16:05:41.485Z,101114.13
2023-01-13T16:08:15.770Z,101120.94
2023-01-13T16:10:43.002Z,101114.97
2023-01-13T16:13:09.634Z,101133.69
2023-01-13T16:15:36.715Z,101131.09
2023-01-13T16:18:04.546Z,101133.66
2023-01-13T16:20:31.227Z,101131.97
2023-01-13T16:22:57.648Z,101135.34
2023-01-13T16:25:26.285Z,101147.16
2023-01-13T16:27:53.183Z,101155.69
2023-01-13T16:30:32.278Z,101156.59
2023-01-13T16:32:58.963Z,101153.19
2023-01-13T16:35:25.686Z,101153.28
2023-01-13T16:37:53.828Z,101178.03
2023-01-13T16:40:21.045Z,101167.84
2023-01-13T16:42:47.447Z,101171.28
2023-01-13T16:45:13.958Z,101162.78
2023-01-13T16:47:40.581Z,101176.47
2023-01-13T16:50:08.042Z,101193.50
2023-01-13T16:52:34.423Z,101184.13
2023-01-13T16:55:01.223Z,101204.63
2023-01-13T16:57:27.652Z,101210.72
2023-01-13T16:59:54.242Z,101210.97
2023-01-13T17:02:21.185Z,101206.88
2023-01-13T17:04:47.642Z,101209.63
2023-01-13T17:07:16.799Z,101219.94
2023-01-13T17:09:43.318Z,101214.13
2023-01-13T17:12:10.533Z,101219.34
2023-01-13T17:14:36.951Z,101225.38
2023-01-13T17:17:03.357Z,101236.47
2023-01-13T17:19:29.867Z,101225.50
2023-01-13T17:21:56.245Z,101231.50
2023-01-13T17:24:24.705Z,101243.34
2023-01-13T17:26:51.571Z,101256.09
2023-01-13T17:29:22.163Z,101256.09
2023-01-13T17:31:50.263Z,101249.31
2023-01-13T17:34:16.923Z,101245.06
2023-01-13T17:36:43.404Z,101241.72
2023-01-13T17:39:16.114Z,101252.81
2023-01-13T17:41:42.523Z,101258.81
2023-01-13T17:44:11.377Z,101262.25
2023-01-13T17:46:37.752Z,101262.31
2023-01-13T17:49:04.106Z,101270.00
2023-01-13T17:51:30.507Z,101269.16
2023-01-13T17:53:56.855Z,101270.00
2023-01-13T17:56:25.165Z,101265.78
2023-01-13T17:58:52.385Z,101269.19
2023-01-13T18:01:20.952Z,101285.34
2023-01-13T18:03:48.017Z,101283.66
2023-01-13T18:06:18.510Z,101276.88
2023-01-13T18:08:45.979Z,101286.22
2023-01-13T18:11:12.944Z,101287.94
2023-01-13T18:13:41.367Z,101287.09
2023-01-13T18:16:12.945Z,101290.47
2023-01-13T18:18:41.330Z,101279.47
2023-01-13T18:21:32.513Z,101290.47
2023-01-13T18:24:17.282Z,101298.13
2023-01-13T18:27:02.140Z,101298.97
2023-01-13T18:29:28.575Z,101294.75
2023-01-13T18:31:54.944Z,101287.94
2023-01-13T18:34:21.419Z,101288.81
2023-01-13T18:36:47.911Z,101310.84
2023-01-13T18:39:14.543Z,101312.53
2023-01-13T18:41:59.644Z,101320.97
2023-01-13T18:44:26.041Z,101322.63
2023-01-13T18:46:52.531Z,101317.50
2023-01-13T18:49:19.088Z,101309.84
2023-01-13T18:51:45.568Z,101311.44
2023-01-13T18:54:12.102Z,101325.81
2023-01-13T18:56:38.540Z,101327.50
2023-01-13T18:59:05.004Z,101320.69
2023-01-13T19:01:31.601Z,101325.78
2023-01-13T19:03:59.382Z,101334.22
2023-01-13T19:06:27.744Z,101328.25
2023-01-13T19:08:55.966Z,101344.38
2023-01-13T19:11:24.023Z,101350.28
2023-01-13T19:13:51.447Z,101343.53
2023-01-13T19:16:19.024Z,101355.47
2023-01-13T19:18:45.633Z,101358.88
2023-01-13T19:21:12.117Z,101377.56
2023-01-13T19:23:38.602Z,101372.41
2023-01-13T19:26:07.757Z,101360.53
2023-01-13T19:28:35.183Z,101363.06
2023-01-13T19:31:03.766Z,101379.19
2023-01-13T19:33:33.755Z,101369.84
2023-01-13T19:36:01.090Z,101370.69
2023-01-13T19:38:28.125Z,101374.94
2023-01-13T19:40:56.136Z,101372.41
2023-01-13T19:43:42.041Z,101384.28
2023-01-13T19:46:09.167Z,101383.41
2023-01-13T19:48:36.053Z,101388.50
2023-01-13T19:51:02.811Z,101400.38
2023-01-13T19:53:30.618Z,101396.13
2023-01-13T19:55:57.859Z,101398.69
2023-01-13T19:58:26.062Z,101402.91
2023-01-13T20:00:54.149Z,101402.91
2023-01-13T20:03:26.092Z,101399.50
2023-01-13T20:05:56.933Z,101409.63
2023-01-13T20:08:23.673Z,101416.41
2023-01-13T20:10:50.204Z,101419.81
2023-01-13T20:13:16.563Z,101426.63
2023-01-13T20:15:43.824Z,101431.75
2023-01-13T20:18:10.290Z,101432.59
2023-01-13T20:20:37.254Z,101418.94
2023-01-13T20:23:03.688Z,101437.66
2023-01-13T20:25:30.259Z,101445.31
2023-01-13T20:27:57.493Z,101432.56
2023-01-13T20:30:24.282Z,101441.91
2023-01-13T20:32:50.851Z,101434.25
2023-01-13T20:35:17.341Z,101433.44
2023-01-13T20:37:43.956Z,101432.56
2023-01-13T20:40:16.164Z,101452.97
2023-01-13T20:42:44.865Z,101453.75
2023-01-13T20:45:16.977Z,101457.16
2023-01-13T20:47:44.631Z,101460.50
2023-01-13T20:50:11.745Z,101480.03
2023-01-13T20:52:38.193Z,101470.69
2023-01-13T20:55:06.786Z,101480.06
2023-01-13T20:57:33.307Z,101472.47
2023-01-13T21:00:00.398Z,101470.75
2023-01-13T21:02:26.824Z,101476.75
2023-01-13T21:04:53.293Z,101480.97
2023-01-13T21:07:19.922Z,101486.94
2023-01-13T21:09:46.508Z,101490.31
2023-01-13T21:12:35.793Z,101495.44
2023-01-13T21:15:17.049Z,101497.91
2023-01-13T21:18:03.186Z,101503.88
2023-01-13T21:20:35.783Z,101505.59
2023-01-13T21:23:03.495Z,101508.19
2023-01-13T21:25:30.895Z,101516.69
2023-01-13T21:28:08.508Z,101513.28
2023-01-13T21:30:36.180Z,101511.59
2023-01-13T21:33:03.982Z,101515.00
2023-01-13T21:35:30.844Z,101530.28
2023-01-13T21:37:57.457Z,101521.81
2023-01-13T21:40:23.993Z,101523.47
2023-01-13T21:43:09.065Z,101523.47
2023-01-13T21:45:57.435Z,101532.84
2023-01-13T21:48:23.950Z,101528.59
2023-01-13T21:50:52.490Z,101533.66
2023-01-13T21:53:18.927Z,101537.06
2023-01-13T21:55:50.548Z,101550.66
2023-01-13T21:58:16.909Z,101548.09
2023-01-13T22:00:44.781Z,101556.59
2023-01-13T22:03:12.672Z,101545.56
2023-01-13T22:05:39.844Z,101551.50
2023-01-13T22:08:07.350Z,101552.34
2023-01-13T22:10:34.479Z,101560.88
2023-01-13T22:13:22.298Z,101564.22
2023-01-13T22:15:48.707Z,101562.53
2023-01-13T22:18:15.251Z,101573.53
2023-01-13T22:20:42.087Z,101574.34
2023-01-13T22:23:08.632Z,101581.97
2023-01-13T22:25:35.195Z,101580.22
2023-01-13T22:28:05.917Z,101592.13
2023-01-13T22:30:33.252Z,101585.31
2023-01-13T22:33:00.296Z,101586.19
2023-01-13T22:35:26.765Z,101589.59
2023-01-13T22:37:53.193Z,101583.66
2023-01-13T22:40:19.751Z,101590.44
2023-01-13T22:42:46.122Z,101583.63
2023-01-13T22:45:13.892Z,101582.81
2023-01-13T22:47:40.726Z,101580.28
2023-01-13T22:50:09.051Z,101582.81
2023-01-13T22:52:35.698Z,101580.25
2023-01-13T22:55:02.230Z,101582.81
2023-01-13T22:57:36.669Z,101591.31
2023-01-13T23:00:14.760Z,101594.75
2023-01-13T23:02:41.209Z,101583.69
2023-01-13T23:05:08.013Z,101590.50
2023-01-13T23:07:35.415Z,101589.59
2023-01-13T23:10:02.371Z,101593.88
2023-01-13T23:12:28.773Z,101596.44
2023-01-13T23:14:55.169Z,101596.44
2023-01-13T23:17:21.532Z,101603.22
2023-01-13T23:19:48.084Z,101594.75
2023-01-13T23:22:14.450Z,101591.31
2023-01-13T23:24:40.885Z,101592.16
2023-01-13T23:27:07.324Z,101589.59
2023-01-13T23:29:33.766Z,101593.03
2023-01-13T23:32:00.151Z,101581.13
2023-01-13T23:34:26.643Z,101580.28
2023-01-13T23:36:53.188Z,101585.34
2023-01-13T23:39:19.724Z,101572.59
2023-01-13T23:41:46.092Z,101572.59
2023-01-13T23:44:12.573Z,101557.28
2023-01-13T23:46:38.944Z,101566.63
2023-01-13T23:49:05.467Z,101577.69
2023-01-13T23:51:32.333Z,101581.94
2023-01-13T23:53:59.521Z,101573.44
2023-01-13T23:56:30.779Z,101573.44
2023-01-13T23:58:57.485Z,101575.16
